Time;durP1;ratioP1;P1;durP2;ratioP2;P2;SDS_P1;SDS_P2;PMS_P1;PMS_P2;Temp;Humidity;BMP_temperature;BMP_pressure;BME280_temperature;BME280_humidity;BME280_pressure;Samples;Min_cycle;Max_cycle;Signal;HPM_P1;HPM_P2
2021/05/13 00:01:22;;;;;;;4.15;2.70;;;9.40;94.60;;;;;;5034711;28;20074;-79
2021/05/13 00:03:53;;;;;;;4.53;3.00;;;9.40;94.80;;;;;;5018258;28;20546;-80
2021/05/13 00:06:19;;;;;;;4.10;2.65;;;9.30;94.80;;;;;;5018184;28;20029;-80
2021/05/13 00:08:44;;;;;;;3.70;2.33;;;9.30;94.80;;;;;;5034526;28;20083;-81
2021/05/13 00:11:11;;;;;;;6.60;1.90;;;9.30;94.80;;;;;;5052209;28;20033;-80
2021/05/13 00:13:39;;;;;;;5.55;1.83;;;9.30;94.70;;;;;;5034342;28;20054;-80
2021/05/13 00:16:06;;;;;;;3.65;2.47;;;9.20;94.60;;;;;;5017980;28;20033;-81
2021/05/13 00:18:33;;;;;;;3.35;2.63;;;9.20;94.60;;;;;;5017976;28;20032;-80
2021/05/13 00:20:59;;;;;;;4.22;2.67;;;9.10;94.60;;;;;;5034397;28;20039;-80
2021/05/13 00:23:25;;;;;;;5.07;2.90;;;9.10;94.60;;;;;;5052188;28;20479;-80
2021/05/13 00:25:51;;;;;;;5.57;3.08;;;9.10;94.60;;;;;;5017883;28;20037;-81
2021/05/13 00:28:21;;;;;;;8.48;3.60;;;9.00;94.60;;;;;;5017754;28;20123;-81
2021/05/13 00:30:48;;;;;;;5.82;3.30;;;9.00;94.80;;;;;;5034037;28;20056;-81
2021/05/13 00:33:14;;;;;;;5.80;3.50;;;9.00;94.90;;;;;;5034000;28;20087;-80
2021/05/13 00:35:40;;;;;;;4.85;3.22;;;8.90;95.10;;;;;;5017640;28;20091;-80
2021/05/13 00:38:05;;;;;;;4.65;3.10;;;8.90;95.20;;;;;;5051685;28;20486;-80
2021/05/13 00:40:33;;;;;;;3.17;2.40;;;8.90;95.10;;;;;;5033971;28;20033;-80
2021/05/13 00:42:59;;;;;;;3.35;2.28;;;8.90;95.10;;;;;;5017706;28;20031;-81
2021/05/13 00:45:25;;;;;;;5.18;2.88;;;8.90;95.00;;;;;;5033937;28;20112;-82
2021/05/13 00:50:23;;;;;;;2.83;2.20;;;8.90;94.90;;;;;;5035001;28;20091;-80
2021/05/13 00:52:49;;;;;;;2.67;2.10;;;8.90;94.80;;;;;;5034041;28;20071;-82
2021/05/13 00:55:17;;;;;;;3.60;2.28;;;8.90;94.70;;;;;;5033906;28;20029;-80
2021/05/13 00:57:46;;;;;;;3.80;2.80;;;8.90;94.70;;;;;;5033604;28;20032;-80
2021/05/13 01:02:59;;;;;;;5.20;3.42;;;8.80;94.70;;;;;;5051630;28;20079;-81
2021/05/13 01:05:26;;;;;;;3.25;2.40;;;8.80;94.80;;;;;;5017390;28;20106;-81
2021/05/13 01:07:52;;;;;;;4.60;2.88;;;8.80;95.00;;;;;;5033697;28;20074;-80
2021/05/13 01:10:18;;;;;;;4.70;2.90;;;8.80;95.00;;;;;;5017148;28;20064;-81
2021/05/13 01:12:45;;;;;;;5.05;3.00;;;8.80;95.00;;;;;;5033514;28;20025;-80
2021/05/13 01:15:22;;;;;;;5.50;2.78;;;8.80;95.00;;;;;;5033351;28;20029;-80
2021/05/13 01:20:25;;;;;;;3.42;2.35;;;8.90;95.00;;;;;;5034749;28;20053;-81
2021/05/13 01:22:52;;;;;;;4.03;2.17;;;8.90;94.90;;;;;;5016955;28;20108;-80
2021/05/13 01:25:17;;;;;;;3.63;2.47;;;8.90;94.90;;;;;;5017158;28;20498;-80
2021/05/13 01:27:43;;;;;;;4.65;2.00;;;8.90;94.80;;;;;;5017337;28;20065;-81
2021/05/13 01:30:09;;;;;;;3.53;2.05;;;8.90;94.70;;;;;;5033372;28;20036;-81
2021/05/13 01:32:35;;;;;;;4.13;2.42;;;8.90;94.70;;;;;;5033768;28;20037;-80
2021/05/13 01:35:01;;;;;;;3.33;2.47;;;8.90;94.70;;;;;;5016859;28;20043;-80
2021/05/13 01:37:26;;;;;;;5.43;2.47;;;8.90;94.70;;;;;;5033247;28;20033;-82
2021/05/13 01:39:52;;;;;;;4.85;2.97;;;8.90;94.60;;;;;;5013222;28;20050;-80
2021/05/13 01:42:17;;;;;;;4.15;2.58;;;8.90;94.70;;;;;;5013429;28;20415;-81
2021/05/13 01:44:45;;;;;;;4.75;2.40;;;8.80;94.70;;;;;;5013361;28;20368;-81
2021/05/13 01:47:11;;;;;;;4.50;2.38;;;8.80;94.80;;;;;;5031210;28;20483;-81
2021/05/13 01:49:38;;;;;;;4.72;2.70;;;8.80;94.80;;;;;;5029864;28;20056;-80
2021/05/13 01:52:04;;;;;;;4.63;2.28;;;8.80;94.80;;;;;;5029651;28;20026;-81
2021/05/13 01:54:30;;;;;;;3.92;2.40;;;8.80;94.90;;;;;;5029732;28;20041;-80
2021/05/13 01:57:06;;;;;;;3.85;2.20;;;8.80;94.80;;;;;;5013208;28;20021;-80
2021/05/13 01:59:32;;;;;;;4.20;2.40;;;8.80;94.90;;;;;;5013320;28;20053;-80
2021/05/13 02:01:59;;;;;;;5.30;2.20;;;8.80;94.90;;;;;;5029743;28;20555;-80
2021/05/13 02:04:26;;;;;;;3.90;2.10;;;8.70;94.90;;;;;;5029777;28;20480;-81
2021/05/13 02:06:52;;;;;;;3.25;2.20;;;8.80;94.90;;;;;;5029545;28;20036;-80
2021/05/13 02:09:17;;;;;;;3.85;1.77;;;8.70;94.90;;;;;;5030938;28;20029;-80
2021/05/13 02:11:43;;;;;;;2.20;1.55;;;8.70;94.90;;;;;;5029544;28;20499;-79
2021/05/13 02:14:09;;;;;;;2.92;1.92;;;8.70;94.90;;;;;;5029552;28;20034;-80
2021/05/13 02:16:34;;;;;;;2.72;2.13;;;8.70;94.90;;;;;;5029678;28;20122;-80
2021/05/13 02:19:00;;;;;;;2.67;1.65;;;8.70;94.80;;;;;;5029593;28;20030;-80
2021/05/13 02:21:26;;;;;;;23.17;2.15;;;8.60;94.90;;;;;;5046095;28;20045;-81
2021/05/13 02:23:52;;;;;;;13.52;2.45;;;8.50;94.90;;;;;;5013103;28;20033;-83
2021/05/13 02:26:20;;;;;;;9.90;2.13;;;8.50;94.80;;;;;;5013038;28;20037;-80
2021/05/13 02:28:46;;;;;;;3.42;1.80;;;8.40;94.70;;;;;;5029353;28;20025;-79
2021/05/13 02:31:13;;;;;;;4.97;1.65;;;8.40;94.70;;;;;;5029711;28;20475;-79
2021/05/13 02:33:39;;;;;;;3.03;1.88;;;8.30;94.70;;;;;;5029336;28;20034;-79
2021/05/13 02:36:05;;;;;;;2.78;1.45;;;8.30;94.70;;;;;;5030961;28;20080;-80
2021/05/13 02:38:31;;;;;;;3.10;2.00;;;8.20;94.70;;;;;;5032710;28;20140;-83
2021/05/13 02:40:56;;;;;;;4.07;2.13;;;8.20;94.80;;;;;;5032858;28;20124;-80
2021/05/13 02:43:23;;;;;;;3.33;2.00;;;8.10;94.80;;;;;;5016187;28;20091;-80
2021/05/13 02:45:48;;;;;;;4.20;2.58;;;8.20;94.80;;;;;;5032815;28;20040;-82
2021/05/13 02:48:14;;;;;;;3.60;2.20;;;8.20;94.70;;;;;;5049321;28;20507;-82
2021/05/13 02:50:40;;;;;;;16.80;2.67;;;8.20;94.80;;;;;;5049337;28;20438;-82
2021/05/13 02:53:05;;;;;;;3.17;2.20;;;8.20;94.80;;;;;;5049430;28;20033;-82
2021/05/13 02:55:31;;;;;;;4.65;2.35;;;8.20;94.80;;;;;;5015975;28;20061;-82
2021/05/13 02:57:59;;;;;;;2.85;1.70;;;8.20;94.80;;;;;;5032549;28;20033;-82
2021/05/13 03:00:35;;;;;;;2.53;1.60;;;8.10;94.70;;;;;;5032492;28;20395;-82
2021/05/13 03:03:00;;;;;;;3.28;1.70;;;8.10;94.80;;;;;;5032438;28;20446;-82
2021/05/13 03:05:27;;;;;;;2.53;1.60;;;8.00;94.80;;;;;;5032307;28;20021;-81
2021/05/13 03:08:00;;;;;;;2.83;1.50;;;8.00;94.80;;;;;;5032481;28;20022;-82
2021/05/13 03:10:42;;;;;;;2.85;1.92;;;7.80;94.80;;;;;;5032331;28;20029;-82
2021/05/13 03:13:10;;;;;;;2.08;1.58;;;7.80;95.00;;;;;;5032391;28;20034;-81
2021/05/13 03:15:36;;;;;;;6.03;1.73;;;7.80;94.90;;;;;;5032169;28;20056;-81
2021/05/13 03:18:02;;;;;;;2.53;1.70;;;7.80;94.90;;;;;;5032146;28;20483;-82
2021/05/13 03:20:35;;;;;;;5.07;2.22;;;7.80;94.80;;;;;;5032194;28;20395;-81
2021/05/13 03:23:01;;;;;;;2.03;1.40;;;7.80;94.80;;;;;;5032207;28;20096;-82
2021/05/13 03:25:32;;;;;;;2.25;1.50;;;7.70;94.70;;;;;;5032209;28;20126;-81
2021/05/13 03:30:39;;;;;;;2.22;1.45;;;7.70;94.60;;;;;;5032413;28;20033;-82
2021/05/13 03:33:04;;;;;;;3.13;1.90;;;7.70;94.50;;;;;;5031976;28;20381;-82
2021/05/13 03:35:31;;;;;;;2.10;1.40;;;7.70;94.50;;;;;;5032343;28;20033;-81
2021/05/13 03:37:56;;;;;;;3.97;1.73;;;7.70;94.60;;;;;;5031974;28;20057;-82
2021/05/13 03:40:22;;;;;;;3.03;1.80;;;7.70;94.60;;;;;;5031827;28;20026;-81
2021/05/13 03:42:48;;;;;;;1.98;1.20;;;7.70;94.60;;;;;;5031838;28;20029;-81
2021/05/13 03:45:13;;;;;;;2.70;1.42;;;7.70;94.60;;;;;;5015407;28;20025;-80
2021/05/13 03:47:39;;;;;;;3.00;2.03;;;7.70;94.60;;;;;;5031242;28;20448;-81
2021/05/13 03:50:06;;;;;;;4.05;2.10;;;7.70;94.70;;;;;;5015062;28;20103;-81
2021/05/13 03:52:31;;;;;;;3.88;2.00;;;7.70;94.70;;;;;;5031655;28;20038;-81
2021/05/13 03:54:57;;;;;;;5.90;2.45;;;7.80;94.80;;;;;;5031799;28;20026;-82
2021/05/13 03:57:23;;;;;;;3.13;2.00;;;7.80;94.90;;;;;;5031625;28;20148;-81
2021/05/13 03:59:50;;;;;;;4.80;2.08;;;7.80;94.80;;;;;;5015131;28;20034;-81
2021/05/13 04:04:50;;;;;;;5.47;2.80;;;7.80;94.80;;;;;;5031978;28;20047;-80
2021/05/13 04:07:16;;;;;;;3.65;1.88;;;7.90;94.90;;;;;;5015031;28;20047;-82
2021/05/13 04:09:42;;;;;;;3.28;1.67;;;7.90;94.90;;;;;;5031548;28;20476;-82
2021/05/13 04:12:08;;;;;;;3.30;1.70;;;7.90;94.90;;;;;;5031236;28;20105;-82
2021/05/13 04:14:34;;;;;;;4.47;1.98;;;7.90;94.90;;;;;;5031172;28;20025;-82
2021/05/13 04:17:01;;;;;;;2.88;1.98;;;7.90;94.90;;;;;;5014591;28;20441;-81
2021/05/13 04:19:27;;;;;;;5.20;2.20;;;7.80;95.00;;;;;;5031176;28;20060;-81
2021/05/13 04:21:53;;;;;;;4.68;2.05;;;7.90;95.00;;;;;;5014927;28;20068;-82
2021/05/13 04:24:18;;;;;;;4.72;2.13;;;7.80;95.00;;;;;;5031214;28;20464;-81
2021/05/13 04:26:45;;;;;;;2.75;1.70;;;7.80;95.00;;;;;;5047884;28;20033;-81
2021/05/13 04:29:11;;;;;;;2.45;1.27;;;7.80;95.00;;;;;;5047829;28;20032;-82
2021/05/13 04:31:37;;;;;;;2.05;1.45;;;7.70;94.90;;;;;;5030819;28;20029;-81
2021/05/13 04:34:04;;;;;;;3.08;1.40;;;7.70;95.00;;;;;;5031213;28;20029;-82
2021/05/13 04:36:30;;;;;;;3.55;1.52;;;7.70;95.10;;;;;;5030955;28;20387;-81
2021/05/13 04:38:56;;;;;;;7.40;1.45;;;7.70;95.10;;;;;;5030702;28;20055;-81
2021/05/13 04:41:22;;;;;;;4.07;1.77;;;7.70;95.10;;;;;;5030796;28;20124;-81
2021/05/13 04:43:48;;;;;;;2.45;1.60;;;7.70;95.10;;;;;;5047235;28;20105;-82
2021/05/13 04:46:16;;;;;;;4.28;1.90;;;7.80;95.10;;;;;;5030791;28;20034;-82
2021/05/13 04:51:38;;;;;;;4.82;1.90;;;7.90;95.20;;;;;;5014458;28;20046;-82
2021/05/13 04:54:04;;;;;;;4.00;1.92;;;8.00;95.30;;;;;;5031290;28;20028;-81
2021/05/13 04:56:30;;;;;;;4.03;2.10;;;8.10;95.30;;;;;;5047631;28;20055;-82
2021/05/13 04:58:57;;;;;;;4.32;1.88;;;8.30;95.50;;;;;;5030187;28;20118;-81
2021/05/13 05:01:23;;;;;;;4.22;2.20;;;8.40;95.50;;;;;;5030892;28;20088;-81
2021/05/13 05:03:49;;;;;;;3.58;2.10;;;8.60;95.50;;;;;;5047553;28;20049;-81
2021/05/13 05:06:15;;;;;;;3.17;1.63;;;8.80;95.60;;;;;;5031327;28;20061;-81
2021/05/13 05:08:42;;;;;;;5.95;1.75;;;8.90;95.50;;;;;;5032206;28;20029;-81
2021/05/13 05:11:08;;;;;;;8.52;2.70;;;9.00;95.50;;;;;;5032072;28;20088;-81
2021/05/13 05:13:35;;;;;;;4.22;2.25;;;9.10;95.60;;;;;;5031594;28;20436;-81
2021/05/13 05:16:01;;;;;;;6.53;2.45;;;9.30;95.70;;;;;;5032813;28;20061;-81
2021/05/13 05:18:27;;;;;;;6.82;2.42;;;9.40;95.70;;;;;;5031023;28;20033;-78
2021/05/13 05:20:53;;;;;;;6.50;2.58;;;9.60;95.70;;;;;;5030634;28;20025;-81
2021/05/13 05:23:19;;;;;;;6.55;3.17;;;9.70;95.70;;;;;;5031386;28;20039;-82
2021/05/13 05:25:45;;;;;;;6.95;2.78;;;9.80;95.60;;;;;;5034130;28;20029;-79
2021/05/13 05:28:11;;;;;;;4.63;2.35;;;9.90;95.60;;;;;;5032212;28;20030;-79
2021/05/13 05:30:38;;;;;;;4.80;2.15;;;10.00;95.60;;;;;;5031780;28;20029;-82
2021/05/13 05:33:06;;;;;;;3.70;1.90;;;10.10;95.50;;;;;;5031434;28;20507;-81
2021/05/13 05:35:34;;;;;;;10.00;2.05;;;10.20;95.50;;;;;;5030421;28;20032;-81
2021/05/13 05:37:59;;;;;;;4.05;1.70;;;10.30;95.50;;;;;;5035968;28;20131;-81
2021/05/13 05:40:25;;;;;;;4.38;2.05;;;10.40;95.50;;;;;;5033917;28;20160;-81
2021/05/13 05:42:52;;;;;;;4.40;2.67;;;10.50;95.40;;;;;;5033854;28;20116;-81
2021/05/13 05:45:20;;;;;;;4.60;2.33;;;10.50;95.30;;;;;;5017514;28;20120;-81
2021/05/13 05:47:50;;;;;;;7.18;2.50;;;10.50;95.20;;;;;;5017712;28;20029;-81
2021/05/13 05:50:17;;;;;;;8.73;2.40;;;10.50;95.20;;;;;;5051823;28;20150;-82
2021/05/13 05:52:43;;;;;;;9.15;3.15;;;10.50;95.30;;;;;;5051864;28;20029;-81
2021/05/13 05:55:10;;;;;;;6.65;2.15;;;10.50;95.40;;;;;;5033149;28;20037;-76
2021/05/13 05:57:36;;;;;;;8.93;2.15;;;10.70;95.40;;;;;;5051189;28;20026;-81
2021/05/13 06:00:04;;;;;;;3.17;1.80;;;10.80;95.30;;;;;;5033128;28;20062;-82
2021/05/13 06:02:30;;;;;;;4.10;2.13;;;11.00;95.20;;;;;;5033507;28;20033;-81
2021/05/13 06:04:55;;;;;;;5.13;1.88;;;11.20;95.20;;;;;;5032874;28;20021;-81
2021/05/13 06:07:22;;;;;;;5.10;2.10;;;11.60;95.40;;;;;;5033003;28;20036;-82
2021/05/13 06:09:48;;;;;;;4.63;2.42;;;12.20;94.80;;;;;;5018940;28;20063;-81
2021/05/13 06:12:14;;;;;;;3.53;1.70;;;12.50;94.10;;;;;;5022264;28;20439;-83
2021/05/13 06:14:40;;;;;;;9.27;2.70;;;12.80;93.80;;;;;;5039198;28;20021;-82
2021/05/13 06:17:06;;;;;;;3.60;1.90;;;12.90;93.60;;;;;;5037493;28;20028;-81
2021/05/13 06:19:32;;;;;;;20.13;4.53;;;12.90;93.40;;;;;;5037833;28;20245;-82
2021/05/13 06:21:58;;;;;;;10.50;2.58;;;12.90;93.50;;;;;;5037860;28;20391;-83
2021/05/13 06:24:23;;;;;;;5.60;2.47;;;12.80;93.50;;;;;;5022034;28;20029;-82
2021/05/13 06:26:57;;;;;;;4.88;2.28;;;12.80;93.60;;;;;;5020650;28;20368;-82
2021/05/13 06:29:23;;;;;;;5.63;2.60;;;12.80;93.50;;;;;;5021379;28;20033;-82
2021/05/13 06:31:49;;;;;;;9.70;4.35;;;12.80;93.50;;;;;;5037091;28;20379;-81
2021/05/13 06:34:15;;;;;;;5.57;2.97;;;12.90;93.50;;;;;;5037643;28;20025;-81
2021/05/13 06:36:41;;;;;;;4.80;2.45;;;12.90;93.40;;;;;;5036969;28;20048;-81
2021/05/13 06:39:07;;;;;;;7.97;3.20;;;13.00;93.40;;;;;;5054215;28;20182;-82
2021/05/13 06:41:33;;;;;;;5.35;2.70;;;13.10;93.30;;;;;;5036140;28;20526;-83
2021/05/13 06:43:59;;;;;;;6.45;2.97;;;13.20;93.30;;;;;;5036477;28;20025;-82
2021/05/13 06:46:25;;;;;;;7.53;3.38;;;13.30;93.20;;;;;;5019833;28;20025;-82
2021/05/13 06:48:51;;;;;;;9.35;3.53;;;13.40;93.20;;;;;;5019422;28;20495;-81
2021/05/13 06:51:18;;;;;;;6.32;3.88;;;13.60;93.20;;;;;;5035894;28;20406;-82
2021/05/13 06:53:45;;;;;;;6.90;4.00;;;13.70;92.90;;;;;;5035837;28;20112;-83
2021/05/13 06:56:11;;;;;;;9.38;3.92;;;13.90;92.90;;;;;;5036028;28;20047;-82
2021/05/13 06:58:37;;;;;;;9.55;4.47;;;14.10;92.70;;;;;;5036336;28;20730;-81
2021/05/13 07:01:03;;;;;;;9.57;5.22;;;14.20;92.50;;;;;;5020776;28;20108;-81
2021/05/13 07:03:28;;;;;;;8.05;5.43;;;14.30;92.40;;;;;;5039427;28;20475;-81
2021/05/13 07:05:54;;;;;;;12.13;6.03;;;14.30;92.10;;;;;;5024254;28;20390;-81
2021/05/13 07:08:20;;;;;;;18.27;8.38;;;14.20;91.80;;;;;;5039661;28;20021;-82
2021/05/13 07:10:45;;;;;;;15.80;8.40;;;14.00;91.50;;;;;;5038984;28;20035;-80
2021/05/13 07:13:11;;;;;;;22.90;9.93;;;13.90;91.60;;;;;;5057500;28;20033;-80
2021/05/13 07:15:37;;;;;;;20.52;9.20;;;13.80;91.60;;;;;;5038790;28;20029;-81
2021/05/13 07:18:03;;;;;;;13.18;8.98;;;13.70;91.80;;;;;;5039055;28;20450;-80
2021/05/13 07:20:30;;;;;;;21.67;12.02;;;13.70;91.90;;;;;;5038730;28;20037;-82
2021/05/13 07:22:57;;;;;;;21.15;11.38;;;13.60;91.80;;;;;;5056950;28;20027;-81
2021/05/13 07:25:23;;;;;;;12.82;9.75;;;13.60;91.80;;;;;;5021757;28;20025;-81
2021/05/13 07:27:49;;;;;;;15.07;11.48;;;13.50;91.60;;;;;;5021551;28;20025;-80
2021/05/13 07:30:16;;;;;;;15.20;10.55;;;13.40;91.60;;;;;;5037561;28;20479;-82
2021/05/13 07:32:43;;;;;;;15.70;10.82;;;13.30;91.60;;;;;;5020055;28;20196;-81
2021/05/13 07:35:09;;;;;;;16.95;11.77;;;13.20;91.90;;;;;;5019399;28;20123;-81
2021/05/13 07:37:35;;;;;;;16.92;11.63;;;13.20;92.20;;;;;;5019361;28;20129;-81
2021/05/13 07:40:04;;;;;;;17.75;11.48;;;13.20;92.10;;;;;;5053380;28;20053;-81
2021/05/13 07:42:29;;;;;;;18.80;13.10;;;13.20;92.00;;;;;;5019758;28;20036;-80
2021/05/13 07:44:55;;;;;;;29.30;14.88;;;13.10;91.80;;;;;;5019850;28;20055;-81
2021/05/13 07:47:22;;;;;;;19.20;13.85;;;13.00;91.80;;;;;;5035598;28;20032;-82
2021/05/13 07:49:48;;;;;;;21.13;12.90;;;13.00;92.00;;;;;;5034512;28;20454;-82
2021/05/13 07:52:14;;;;;;;15.65;11.32;;;13.00;92.20;;;;;;5018645;28;20065;-81
2021/05/13 07:54:40;;;;;;;20.17;12.38;;;13.10;92.30;;;;;;5052186;28;20090;-71
2021/05/13 07:57:07;;;;;;;20.80;13.20;;;13.10;92.00;;;;;;5052173;28;20036;-81
2021/05/13 07:59:34;;;;;;;19.33;13.57;;;13.20;92.00;;;;;;5018009;28;20120;-81
2021/05/13 08:02:01;;;;;;;21.50;14.68;;;13.20;91.90;;;;;;5033173;28;20057;-81
2021/05/13 08:04:28;;;;;;;23.85;13.88;;;13.10;91.80;;;;;;5030961;28;20044;-81
2021/05/13 08:06:54;;;;;;;19.35;13.13;;;13.10;91.90;;;;;;5033634;28;20067;-82
2021/05/13 08:09:19;;;;;;;18.83;12.23;;;13.10;92.10;;;;;;5030855;28;20052;-80
2021/05/13 08:11:48;;;;;;;17.75;12.82;;;13.20;92.30;;;;;;5013354;28;20387;-78
2021/05/13 08:14:14;;;;;;;19.60;11.68;;;13.30;92.30;;;;;;4998458;28;20090;-77
2021/05/13 08:16:40;;;;;;;20.65;12.65;;;13.50;92.30;;;;;;5013674;28;20487;-76
2021/05/13 08:19:07;;;;;;;20.75;13.13;;;13.60;92.20;;;;;;5013955;28;20076;-77
2021/05/13 08:21:35;;;;;;;20.05;11.02;;;13.70;91.90;;;;;;5030339;28;20033;-76
2021/05/13 08:24:00;;;;;;;18.23;11.88;;;13.60;91.90;;;;;;5048431;28;20025;-75
2021/05/13 08:26:28;;;;;;;22.77;12.38;;;13.70;92.00;;;;;;5030423;28;20555;-75
2021/05/13 08:28:54;;;;;;;18.77;11.60;;;13.80;92.00;;;;;;5030583;28;20040;-77
2021/05/13 08:31:20;;;;;;;17.80;10.52;;;13.80;91.70;;;;;;5048350;28;20031;-77
2021/05/13 08:33:45;;;;;;;13.50;9.52;;;13.80;91.40;;;;;;5030459;28;20124;-77
2021/05/13 08:36:11;;;;;;;14.35;9.95;;;13.90;91.40;;;;;;5013651;28;20430;-76
2021/05/13 08:38:37;;;;;;;13.98;9.57;;;14.00;91.30;;;;;;5030218;28;20148;-76
2021/05/13 08:41:03;;;;;;;13.57;8.57;;;14.20;91.20;;;;;;5013890;28;20036;-82
2021/05/13 08:43:30;;;;;;;18.20;7.10;;;14.40;91.00;;;;;;5014797;28;20097;-80
2021/05/13 08:45:57;;;;;;;10.18;6.55;;;14.80;91.10;;;;;;5013270;28;20033;-80
2021/05/13 08:48:28;;;;;;;13.73;7.13;;;15.20;90.50;;;;;;5013796;28;20025;-80
2021/05/13 08:50:56;;;;;;;9.70;6.70;;;15.40;89.90;;;;;;5029547;28;20029;-80
2021/05/13 08:53:21;;;;;;;9.07;5.18;;;15.60;89.20;;;;;;5014449;28;20029;-81
2021/05/13 08:55:47;;;;;;;7.82;4.57;;;15.70;88.80;;;;;;5029133;28;20029;-80
2021/05/13 08:58:13;;;;;;;10.45;4.63;;;15.70;88.50;;;;;;5029452;28;20032;-80
2021/05/13 09:00:39;;;;;;;8.15;4.22;;;15.70;88.20;;;;;;5012416;28;20065;-81
2021/05/13 09:03:05;;;;;;;8.77;3.75;;;15.60;88.00;;;;;;5029885;28;20041;-81
2021/05/13 09:05:31;;;;;;;4.85;3.70;;;15.60;88.00;;;;;;5013243;28;20028;-80
2021/05/13 09:08:03;;;;;;;4.85;3.60;;;15.50;87.90;;;;;;5029561;28;20021;-83
2021/05/13 09:10:29;;;;;;;4.93;3.50;;;15.30;87.80;;;;;;5030219;28;20033;-80
2021/05/13 09:12:55;;;;;;;5.53;3.45;;;15.20;88.30;;;;;;5013455;28;20048;-80
2021/05/13 09:15:23;;;;;;;7.40;4.20;;;15.20;88.40;;;;;;5013977;28;20043;-80
2021/05/13 09:18:02;;;;;;;14.50;4.57;;;15.30;88.20;;;;;;5029846;28;20036;-77
2021/05/13 09:20:31;;;;;;;4.45;3.30;;;15.50;88.10;;;;;;5029206;28;20025;-82
2021/05/13 09:23:23;;;;;;;4.90;3.42;;;15.90;88.40;;;;;;5029992;28;20646;-80
2021/05/13 09:26:04;;;;;;;12.18;3.65;;;16.60;88.10;;;;;;5047875;28;20028;-79
2021/05/13 09:28:29;;;;;;;8.18;4.45;;;17.60;87.60;;;;;;5030445;28;20048;-80
2021/05/13 09:30:55;;;;;;;11.85;3.45;;;18.20;85.10;;;;;;5048756;28;20067;-79
2021/05/13 09:33:38;;;;;;;9.18;4.63;;;18.40;82.90;;;;;;5014755;28;20028;-79
2021/05/13 09:36:25;;;;;;;5.80;3.95;;;18.30;81.10;;;;;;5048947;28;20020;-79
2021/05/13 09:38:51;;;;;;;5.90;3.20;;;18.10;79.70;;;;;;5014050;28;20069;-81
2021/05/13 09:41:35;;;;;;;7.03;4.15;;;17.90;79.00;;;;;;5011917;28;20398;-82
2021/05/13 09:44:01;;;;;;;9.18;3.65;;;17.60;78.10;;;;;;5013632;28;20126;-82
2021/05/13 09:46:45;;;;;;;13.63;5.13;;;17.40;78.70;;;;;;5035411;28;20101;-82
2021/05/13 09:49:11;;;;;;;8.15;4.55;;;17.30;78.60;;;;;;4996544;28;20025;-81
2021/05/13 09:51:39;;;;;;;8.38;4.85;;;17.40;79.10;;;;;;5020166;28;20048;-81
2021/05/13 09:54:05;;;;;;;12.65;5.35;;;17.60;79.50;;;;;;5054283;28;20029;-79
2021/05/13 09:56:31;;;;;;;11.02;6.03;;;18.00;80.60;;;;;;5036628;28;20067;-80
2021/05/13 09:58:58;;;;;;;8.75;6.18;;;18.60;80.10;;;;;;5037397;28;20029;-80
2021/05/13 10:01:36;;;;;;;11.73;7.32;;;19.30;80.20;;;;;;5036111;28;20518;-80
2021/05/13 10:04:06;;;;;;;11.38;7.40;;;20.00;79.00;;;;;;5054184;28;20053;-80
2021/05/13 10:06:32;;;;;;;10.52;5.72;;;20.70;77.30;;;;;;5035121;28;20025;-79
2021/05/13 10:08:58;;;;;;;9.82;6.03;;;21.50;76.70;;;;;;5053237;28;20048;-79
2021/05/13 10:11:23;;;;;;;7.43;5.80;;;22.00;74.80;;;;;;5053081;28;20515;-83
2021/05/13 10:13:53;;;;;;;12.82;7.18;;;22.20;73.30;;;;;;5035487;28;20475;-82
2021/05/13 10:16:19;;;;;;;14.15;6.72;;;22.40;72.50;;;;;;5034951;28;20029;-81
2021/05/13 10:18:50;;;;;;;11.50;6.07;;;22.70;71.70;;;;;;5019120;28;20044;-81
2021/05/13 10:21:23;;;;;;;9.32;6.57;;;22.70;70.30;;;;;;5035370;28;20163;-82
2021/05/13 10:23:52;;;;;;;14.30;7.70;;;23.10;69.00;;;;;;5052710;28;20017;-82
2021/05/13 10:26:41;;;;;;;15.43;8.93;;;23.70;67.90;;;;;;5034986;28;20026;-83
2021/05/13 10:29:22;;;;;;;11.57;8.07;;;24.30;66.20;;;;;;5035476;28;20032;-80
2021/05/13 10:32:00;;;;;;;13.85;8.63;;;24.10;63.30;;;;;;5034383;28;20036;-83
2021/05/13 10:34:41;;;;;;;11.50;8.38;;;23.70;62.50;;;;;;5052419;28;20017;-82
2021/05/13 10:37:40;;;;;;;10.30;8.00;;;23.20;62.40;;;;;;5034100;28;20386;-81
2021/05/13 10:42:39;;;;;;;12.88;8.00;;;23.30;62.60;;;;;;5052204;28;20365;-82
2021/05/13 10:45:23;;;;;;;12.93;7.13;;;23.40;62.00;;;;;;5052735;28;20029;-82
2021/05/13 10:48:10;;;;;;;10.82;6.70;;;23.30;60.90;;;;;;5052234;28;20021;-80
2021/05/13 10:51:18;;;;;;;14.88;6.82;;;23.20;61.30;;;;;;5034277;28;20033;-81
2021/05/13 10:53:48;;;;;;;8.63;5.00;;;23.40;61.00;;;;;;5003484;28;20114;-79
2021/05/13 10:56:27;;;;;;;7.65;4.65;;;24.10;62.00;;;;;;5050716;28;20046;-82
2021/05/13 10:59:19;;;;;;;8.05;4.78;;;25.00;59.80;;;;;;5034449;28;20021;-82
2021/05/13 11:01:46;;;;;;;7.13;5.03;;;25.00;58.30;;;;;;5017911;28;20057;-82
2021/05/13 11:04:24;;;;;;;10.00;4.93;;;25.00;58.20;;;;;;5017683;28;20036;-83
2021/05/13 11:07:01;;;;;;;10.48;5.00;;;24.80;56.80;;;;;;5034884;28;20439;-81
2021/05/13 11:09:39;;;;;;;7.38;5.07;;;25.00;58.10;;;;;;5034538;28;20112;-81
2021/05/13 11:12:24;;;;;;;6.63;4.25;;;26.10;57.90;;;;;;5034130;28;20093;-81
2021/05/13 11:17:56;;;;;;;11.20;6.82;;;27.60;55.30;;;;;;5051978;28;20040;-80
2021/05/13 11:20:31;;;;;;;12.57;8.30;;;28.60;54.40;;;;;;5046830;28;20033;-83
2021/05/13 11:23:09;;;;;;;13.75;10.30;;;29.50;53.20;;;;;;5034278;28;20108;-79
2021/05/13 11:25:45;;;;;;;12.68;9.60;;;29.80;51.50;;;;;;5051613;28;20834;-79
2021/05/13 11:28:31;;;;;;;17.65;11.65;;;29.50;50.00;;;;;;5050529;28;20068;-79
2021/05/13 11:31:12;;;;;;;13.60;11.00;;;28.60;49.50;;;;;;5050963;28;20020;-82
2021/05/13 11:33:47;;;;;;;18.23;15.50;;;27.90;49.70;;;;;;5051277;28;20056;-82
2021/05/13 11:36:15;;;;;;;11.15;9.43;;;27.90;49.80;;;;;;5033297;28;20322;-83
2021/05/13 11:38:41;;;;;;;12.70;9.93;;;27.60;49.00;;;;;;5050793;28;20048;-78
2021/05/13 11:41:08;;;;;;;13.52;10.13;;;27.00;49.00;;;;;;5032653;28;20035;-80
2021/05/13 11:43:35;;;;;;;10.27;8.00;;;26.60;49.50;;;;;;5016625;28;20059;-80
2021/05/13 11:46:04;;;;;;;15.30;9.38;;;26.30;49.70;;;;;;5033675;28;20023;-82
2021/05/13 11:48:41;;;;;;;10.32;8.40;;;26.20;50.10;;;;;;5051723;28;20025;-82
2021/05/13 11:51:21;;;;;;;10.15;7.53;;;26.10;49.80;;;;;;5016899;28;20059;-81
2021/05/13 11:53:48;;;;;;;8.70;6.00;;;25.90;50.00;;;;;;5030561;28;20108;-80
2021/05/13 11:56:15;;;;;;;8.30;5.97;;;25.80;50.00;;;;;;5031698;28;20036;-79
2021/05/13 11:58:53;;;;;;;11.80;4.53;;;25.60;49.50;;;;;;5033214;28;20502;-80
2021/05/13 12:01:32;;;;;;;6.90;4.18;;;25.10;49.60;;;;;;5033273;28;20094;-82
2021/05/13 12:03:58;;;;;;;6.18;4.00;;;24.80;50.20;;;;;;5033020;28;20031;-83
2021/05/13 12:06:24;;;;;;;6.13;3.58;;;24.50;50.50;;;;;;5033938;28;20055;-79
2021/05/13 12:08:50;;;;;;;5.85;3.00;;;24.20;50.70;;;;;;5016525;28;20491;-82
2021/05/13 12:11:27;;;;;;;6.47;3.20;;;24.00;51.20;;;;;;5032683;28;20029;-82
2021/05/13 12:13:57;;;;;;;8.63;3.10;;;23.90;50.90;;;;;;5032472;28;20029;-80
2021/05/13 12:16:25;;;;;;;4.15;2.75;;;23.80;50.50;;;;;;5032507;28;20032;-81
2021/05/13 12:18:59;;;;;;;3.03;2.10;;;23.80;51.20;;;;;;5032529;28;20024;-82
2021/05/13 12:21:26;;;;;;;3.40;2.13;;;23.90;51.50;;;;;;5032169;28;20033;-81
2021/05/13 12:23:52;;;;;;;4.35;2.28;;;24.30;52.10;;;;;;5031818;28;20028;-80
2021/05/13 12:26:24;;;;;;;3.17;2.20;;;25.30;52.80;;;;;;5050129;28;20032;-82
2021/05/13 12:28:51;;;;;;;8.27;1.50;;;26.70;52.00;;;;;;5032409;28;20020;-80
2021/05/13 12:31:25;;;;;;;4.43;1.30;;;27.60;49.80;;;;;;5015070;28;20036;-79
2021/05/13 12:33:50;;;;;;;6.07;1.33;;;27.50;47.90;;;;;;5031933;28;20025;-80
2021/05/13 12:36:16;;;;;;;3.10;1.05;;;27.30;48.00;;;;;;5050235;28;20429;-80
2021/05/13 12:38:43;;;;;;;2.25;1.05;;;27.50;48.00;;;;;;5015727;28;20045;-81
2021/05/13 12:41:15;;;;;;;2.00;1.35;;;27.80;47.20;;;;;;5031789;28;20032;-81
2021/05/13 12:43:46;;;;;;;8.20;1.88;;;27.90;45.90;;;;;;5031400;28;20029;-83
2021/05/13 12:46:25;;;;;;;5.03;2.50;;;27.80;45.80;;;;;;5016089;28;20028;-81
2021/05/13 12:48:53;;;;;;;4.40;2.60;;;27.50;45.70;;;;;;5015961;28;20467;-80
2021/05/13 12:51:21;;;;;;;5.28;1.33;;;27.20;45.20;;;;;;5015575;28;20033;-83
2021/05/13 12:53:57;;;;;;;3.10;1.70;;;26.70;44.50;;;;;;5031604;28;20020;-82
2021/05/13 12:56:28;;;;;;;6.38;1.77;;;26.20;44.10;;;;;;5031468;28;20025;-83
2021/05/13 12:59:13;;;;;;;4.82;1.60;;;25.70;44.70;;;;;;5031557;28;20078;-82
2021/05/13 13:01:55;;;;;;;5.30;1.80;;;25.20;44.90;;;;;;5049927;28;20048;-81
2021/05/13 13:04:21;;;;;;;2.55;1.20;;;24.90;44.80;;;;;;5031726;28;20025;-83
2021/05/13 13:07:00;;;;;;;4.28;1.38;;;24.70;45.20;;;;;;5031356;28;20387;-81
2021/05/13 13:09:33;;;;;;;2.05;1.33;;;24.50;45.40;;;;;;5030112;28;20036;-80
2021/05/13 13:12:13;;;;;;;4.38;1.70;;;24.20;45.60;;;;;;5015155;28;20454;-82
2021/05/13 13:14:44;;;;;;;6.00;2.05;;;24.00;45.70;;;;;;5050263;28;20033;-80
2021/05/13 13:17:24;;;;;;;4.57;1.73;;;23.70;45.60;;;;;;5015725;28;20029;-81